sensor_id;sensor_type;location;lat;lon;timestamp;temperature;humidity
45868;DHT22;31582;45.490;7.860;2023-04-01T00:00:01;10.00;68.20
45868;DHT22;31582;45.490;7.860;2023-04-01T00:02:28;9.80;69.90
45868;DHT22;31582;45.490;7.860;2023-04-01T00:04:54;9.60;72.00
45868;DHT22;31582;45.490;7.860;2023-04-01T00:07:21;9.50;72.50
45868;DHT22;31582;45.490;7.860;2023-04-01T00:09:49;9.40;73.20
45868;DHT22;31582;45.490;7.860;2023-04-01T00:12:15;9.40;73.70
45868;DHT22;31582;45.490;7.860;2023-04-01T00:14:43;9.30;74.30
45868;DHT22;31582;45.490;7.860;2023-04-01T00:17:10;9.20;74.30
45868;DHT22;31582;45.490;7.860;2023-04-01T00:19:37;9.10;75.80
45868;DHT22;31582;45.490;7.860;2023-04-01T00:22:04;9.10;77.30
45868;DHT22;31582;45.490;7.860;2023-04-01T00:24:30;9.10;76.90
45868;DHT22;31582;45.490;7.860;2023-04-01T00:26:58;9.00;77.10
45868;DHT22;31582;45.490;7.860;2023-04-01T00:29:24;9.30;74.60
45868;DHT22;31582;45.490;7.860;2023-04-01T00:31:56;9.30;74.40
45868;DHT22;31582;45.490;7.860;2023-04-01T00:34:23;9.30;74.70
45868;DHT22;31582;45.490;7.860;2023-04-01T00:36:51;9.30;74.20
45868;DHT22;31582;45.490;7.860;2023-04-01T00:39:21;9.30;74.70
45868;DHT22;31582;45.490;7.860;2023-04-01T00:41:48;9.40;74.10
45868;DHT22;31582;45.490;7.860;2023-04-01T00:44:23;9.30;74.30
45868;DHT22;31582;45.490;7.860;2023-04-01T00:46:50;9.20;75.30
45868;DHT22;31582;45.490;7.860;2023-04-01T00:49:22;9.00;75.50
45868;DHT22;31582;45.490;7.860;2023-04-01T00:51:53;8.80;77.50
45868;DHT22;31582;45.490;7.860;2023-04-01T00:54:23;8.80;76.70
45868;DHT22;31582;45.490;7.860;2023-04-01T00:57:21;8.80;77.00
45868;DHT22;31582;45.490;7.860;2023-04-01T00:59:52;8.70;77.90
45868;DHT22;31582;45.490;7.860;2023-04-01T01:02:21;8.60;78.90
45868;DHT22;31582;45.490;7.860;2023-04-01T01:04:48;9.10;73.00
45868;DHT22;31582;45.490;7.860;2023-04-01T01:07:36;9.20;71.70
45868;DHT22;31582;45.490;7.860;2023-04-01T01:10:20;9.10;73.90
45868;DHT22;31582;45.490;7.860;2023-04-01T01:15:51;9.10;73.40
45868;DHT22;31582;45.490;7.860;2023-04-01T01:18:41;9.10;72.20
45868;DHT22;31582;45.490;7.860;2023-04-01T01:21:41;9.10;72.20
45868;DHT22;31582;45.490;7.860;2023-04-01T01:24:40;8.90;74.00
45868;DHT22;31582;45.490;7.860;2023-04-01T01:27:16;8.70;76.50
45868;DHT22;31582;45.490;7.860;2023-04-01T01:38:15;9.70;60.40
45868;DHT22;31582;45.490;7.860;2023-04-01T01:40:45;10.10;57.90
45868;DHT22;31582;45.490;7.860;2023-04-01T01:43:16;10.40;56.80
45868;DHT22;31582;45.490;7.860;2023-04-01T01:45:49;10.70;55.00
45868;DHT22;31582;45.490;7.860;2023-04-01T01:48:19;10.90;53.40
45868;DHT22;31582;45.490;7.860;2023-04-01T01:50:48;11.20;52.10
45868;DHT22;31582;45.490;7.860;2023-04-01T01:53:16;11.00;57.00
45868;DHT22;31582;45.490;7.860;2023-04-01T01:55:45;10.60;56.60
45868;DHT22;31582;45.490;7.860;2023-04-01T01:58:23;10.40;58.10
45868;DHT22;31582;45.490;7.860;2023-04-01T02:00:55;10.30;59.10
45868;DHT22;31582;45.490;7.860;2023-04-01T02:03:25;10.10;59.60
45868;DHT22;31582;45.490;7.860;2023-04-01T02:05:56;10.10;57.00
45868;DHT22;31582;45.490;7.860;2023-04-01T02:08:30;10.10;60.00
45868;DHT22;31582;45.490;7.860;2023-04-01T02:11:04;9.90;60.90
45868;DHT22;31582;45.490;7.860;2023-04-01T02:13:37;9.70;63.30
45868;DHT22;31582;45.490;7.860;2023-04-01T02:16:13;9.50;64.70
45868;DHT22;31582;45.490;7.860;2023-04-01T02:18:44;9.40;66.70
45868;DHT22;31582;45.490;7.860;2023-04-01T02:21:12;9.20;65.40
45868;DHT22;31582;45.490;7.860;2023-04-01T02:23:40;9.20;65.80
45868;DHT22;31582;45.490;7.860;2023-04-01T02:26:08;9.20;66.70
45868;DHT22;31582;45.490;7.860;2023-04-01T02:28:38;9.10;66.70
45868;DHT22;31582;45.490;7.860;2023-04-01T02:31:07;9.10;65.50
45868;DHT22;31582;45.490;7.860;2023-04-01T02:33:36;9.30;63.70
45868;DHT22;31582;45.490;7.860;2023-04-01T02:36:05;9.40;63.90
45868;DHT22;31582;45.490;7.860;2023-04-01T02:38:32;9.40;64.20
45868;DHT22;31582;45.490;7.860;2023-04-01T02:41:02;9.50;62.60
45868;DHT22;31582;45.490;7.860;2023-04-01T02:43:29;9.60;61.60
45868;DHT22;31582;45.490;7.860;2023-04-01T02:45:56;9.50;63.60
45868;DHT22;31582;45.490;7.860;2023-04-01T02:48:23;9.40;59.80
45868;DHT22;31582;45.490;7.860;2023-04-01T02:50:50;9.70;58.70
45868;DHT22;31582;45.490;7.860;2023-04-01T02:53:17;9.60;61.30
45868;DHT22;31582;45.490;7.860;2023-04-01T02:55:44;9.40;61.30
45868;DHT22;31582;45.490;7.860;2023-04-01T02:58:11;9.10;64.80
45868;DHT22;31582;45.490;7.860;2023-04-01T03:00:38;8.70;68.40
45868;DHT22;31582;45.490;7.860;2023-04-01T03:03:05;8.30;72.10
45868;DHT22;31582;45.490;7.860;2023-04-01T03:05:32;8.00;74.30
45868;DHT22;31582;45.490;7.860;2023-04-01T03:07:59;7.80;75.80
45868;DHT22;31582;45.490;7.860;2023-04-01T03:10:26;8.00;62.90
45868;DHT22;31582;45.490;7.860;2023-04-01T03:12:53;8.70;55.80
45868;DHT22;31582;45.490;7.860;2023-04-01T03:15:20;9.70;50.30
45868;DHT22;31582;45.490;7.860;2023-04-01T03:17:46;10.30;50.50
45868;DHT22;31582;45.490;7.860;2023-04-01T03:20:14;10.70;48.50
45868;DHT22;31582;45.490;7.860;2023-04-01T03:22:41;11.10;47.10
45868;DHT22;31582;45.490;7.860;2023-04-01T03:25:10;11.20;48.80
45868;DHT22;31582;45.490;7.860;2023-04-01T03:27:37;10.90;50.60
45868;DHT22;31582;45.490;7.860;2023-04-01T03:30:05;10.60;52.40
45868;DHT22;31582;45.490;7.860;2023-04-01T03:32:33;10.10;54.40
45868;DHT22;31582;45.490;7.860;2023-04-01T03:34:59;9.50;59.80
45868;DHT22;31582;45.490;7.860;2023-04-01T03:37:26;9.00;62.90
45868;DHT22;31582;45.490;7.860;2023-04-01T03:39:53;8.80;64.90
45868;DHT22;31582;45.490;7.860;2023-04-01T03:42:20;8.60;61.00
45868;DHT22;31582;45.490;7.860;2023-04-01T03:44:47;9.10;59.50
45868;DHT22;31582;45.490;7.860;2023-04-01T03:47:14;9.10;60.30
45868;DHT22;31582;45.490;7.860;2023-04-01T03:49:41;9.00;61.30
45868;DHT22;31582;45.490;7.860;2023-04-01T03:52:11;9.20;56.50
45868;DHT22;31582;45.490;7.860;2023-04-01T03:54:38;9.40;56.10
45868;DHT22;31582;45.490;7.860;2023-04-01T03:57:05;9.40;57.40
45868;DHT22;31582;45.490;7.860;2023-04-01T03:59:32;9.40;58.60
45868;DHT22;31582;45.490;7.860;2023-04-01T04:02:00;9.20;59.80
45868;DHT22;31582;45.490;7.860;2023-04-01T04:04:27;9.20;59.90
45868;DHT22;31582;45.490;7.860;2023-04-01T04:06:54;9.30;57.90
45868;DHT22;31582;45.490;7.860;2023-04-01T04:09:22;9.70;55.40
45868;DHT22;31582;45.490;7.860;2023-04-01T04:11:49;9.80;56.50
45868;DHT22;31582;45.490;7.860;2023-04-01T04:14:16;9.70;57.00
45868;DHT22;31582;45.490;7.860;2023-04-01T04:16:43;9.50;58.40
45868;DHT22;31582;45.490;7.860;2023-04-01T04:19:10;9.40;57.10
45868;DHT22;31582;45.490;7.860;2023-04-01T04:21:38;9.70;55.10
45868;DHT22;31582;45.490;7.860;2023-04-01T04:24:05;9.90;53.10
45868;DHT22;31582;45.490;7.860;2023-04-01T04:26:32;10.20;50.50
45868;DHT22;31582;45.490;7.860;2023-04-01T04:29:00;10.50;48.70
45868;DHT22;31582;45.490;7.860;2023-04-01T04:31:27;10.90;48.00
45868;DHT22;31582;45.490;7.860;2023-04-01T04:33:54;11.10;47.80
45868;DHT22;31582;45.490;7.860;2023-04-01T04:36:22;11.10;48.10
45868;DHT22;31582;45.490;7.860;2023-04-01T04:38:49;11.20;48.10
45868;DHT22;31582;45.490;7.860;2023-04-01T04:41:17;11.20;47.90
45868;DHT22;31582;45.490;7.860;2023-04-01T04:43:53;11.20;47.90
45868;DHT22;31582;45.490;7.860;2023-04-01T04:46:20;11.30;47.40
45868;DHT22;31582;45.490;7.860;2023-04-01T04:48:47;11.40;46.80
45868;DHT22;31582;45.490;7.860;2023-04-01T04:51:16;11.50;46.70
45868;DHT22;31582;45.490;7.860;2023-04-01T04:53:44;11.50;46.70
45868;DHT22;31582;45.490;7.860;2023-04-01T04:56:11;11.40;46.80
45868;DHT22;31582;45.490;7.860;2023-04-01T04:58:39;11.50;46.90
45868;DHT22;31582;45.490;7.860;2023-04-01T05:01:08;11.50;47.00
45868;DHT22;31582;45.490;7.860;2023-04-01T05:03:35;11.40;46.80
45868;DHT22;31582;45.490;7.860;2023-04-01T05:06:02;11.30;47.50
45868;DHT22;31582;45.490;7.860;2023-04-01T05:08:29;11.40;47.40
45868;DHT22;31582;45.490;7.860;2023-04-01T05:10:56;11.30;47.80
45868;DHT22;31582;45.490;7.860;2023-04-01T05:13:23;11.40;46.80
45868;DHT22;31582;45.490;7.860;2023-04-01T05:15:50;11.40;46.80
45868;DHT22;31582;45.490;7.860;2023-04-01T05:18:17;11.40;47.50
45868;DHT22;31582;45.490;7.860;2023-04-01T05:20:52;11.40;46.90
45868;DHT22;31582;45.490;7.860;2023-04-01T05:23:20;11.40;47.30
45868;DHT22;31582;45.490;7.860;2023-04-01T05:25:49;11.40;47.40
45868;DHT22;31582;45.490;7.860;2023-04-01T05:28:16;11.50;47.10
45868;DHT22;31582;45.490;7.860;2023-04-01T05:30:44;11.50;46.80
45868;DHT22;31582;45.490;7.860;2023-04-01T05:33:12;11.50;47.10
45868;DHT22;31582;45.490;7.860;2023-04-01T05:35:40;11.50;47.00
45868;DHT22;31582;45.490;7.860;2023-04-01T05:38:07;11.50;47.30
45868;DHT22;31582;45.490;7.860;2023-04-01T05:40:34;11.40;47.20
45868;DHT22;31582;45.490;7.860;2023-04-01T05:43:01;11.50;46.90
45868;DHT22;31582;45.490;7.860;2023-04-01T05:45:28;11.50;47.10
45868;DHT22;31582;45.490;7.860;2023-04-01T05:47:55;11.50;46.60
45868;DHT22;31582;45.490;7.860;2023-04-01T05:50:22;11.60;46.60
45868;DHT22;31582;45.490;7.860;2023-04-01T05:52:49;11.60;46.70
45868;DHT22;31582;45.490;7.860;2023-04-01T05:55:15;11.70;46.50
45868;DHT22;31582;45.490;7.860;2023-04-01T05:57:45;11.70;46.60
45868;DHT22;31582;45.490;7.860;2023-04-01T06:00:12;11.70;46.20
45868;DHT22;31582;45.490;7.860;2023-04-01T06:02:39;11.80;46.40
45868;DHT22;31582;45.490;7.860;2023-04-01T06:05:38;11.80;46.30
45868;DHT22;31582;45.490;7.860;2023-04-01T06:08:13;11.80;46.30
45868;DHT22;31582;45.490;7.860;2023-04-01T06:10:50;11.80;46.70
45868;DHT22;31582;45.490;7.860;2023-04-01T06:16:15;11.80;46.90
45868;DHT22;31582;45.490;7.860;2023-04-01T06:19:00;11.90;47.20
45868;DHT22;31582;45.490;7.860;2023-04-01T06:24:26;11.90;47.30
45868;DHT22;31582;45.490;7.860;2023-04-01T06:32:54;12.10;46.80
45868;DHT22;31582;45.490;7.860;2023-04-01T06:44:17;12.40;45.70
45868;DHT22;31582;45.490;7.860;2023-04-01T06:46:57;12.50;45.10
45868;DHT22;31582;45.490;7.860;2023-04-01T06:49:29;12.60;45.10
45868;DHT22;31582;45.490;7.860;2023-04-01T06:54:39;12.70;44.30
45868;DHT22;31582;45.490;7.860;2023-04-01T06:57:33;12.80;43.90
45868;DHT22;31582;45.490;7.860;2023-04-01T07:00:03;12.90;44.10
45868;DHT22;31582;45.490;7.860;2023-04-01T07:02:45;13.00;43.80
45868;DHT22;31582;45.490;7.860;2023-04-01T07:05:16;13.10;43.60
45868;DHT22;31582;45.490;7.860;2023-04-01T07:07:49;13.20;43.50
45868;DHT22;31582;45.490;7.860;2023-04-01T07:10:43;13.20;43.30
45868;DHT22;31582;45.490;7.860;2023-04-01T07:13:24;13.30;43.30
45868;DHT22;31582;45.490;7.860;2023-04-01T07:18:40;13.50;43.00
45868;DHT22;31582;45.490;7.860;2023-04-01T07:21:29;13.60;42.50
45868;DHT22;31582;45.490;7.860;2023-04-01T07:24:04;13.70;42.60
45868;DHT22;31582;45.490;7.860;2023-04-01T07:26:31;13.90;41.90
45868;DHT22;31582;45.490;7.860;2023-04-01T07:28:58;14.00;41.80
45868;DHT22;31582;45.490;7.860;2023-04-01T07:31:30;14.10;41.80
45868;DHT22;31582;45.490;7.860;2023-04-01T07:37:16;14.30;42.50
45868;DHT22;31582;45.490;7.860;2023-04-01T07:45:14;14.70;41.60
45868;DHT22;31582;45.490;7.860;2023-04-01T07:50:41;15.10;40.30
45868;DHT22;31582;45.490;7.860;2023-04-01T08:07:04;15.90;38.50
45868;DHT22;31582;45.490;7.860;2023-04-01T08:12:55;16.10;39.00
45868;DHT22;31582;45.490;7.860;2023-04-01T08:18:17;16.30;36.40
45868;DHT22;31582;45.490;7.860;2023-04-01T08:21:02;16.40;36.10
45868;DHT22;31582;45.490;7.860;2023-04-01T08:23:46;16.50;36.20
45868;DHT22;31582;45.490;7.860;2023-04-01T08:29:13;16.70;34.30
45868;DHT22;31582;45.490;7.860;2023-04-01T08:31:55;16.80;34.30
45868;DHT22;31582;45.490;7.860;2023-04-01T08:34:28;16.90;35.10
45868;DHT22;31582;45.490;7.860;2023-04-01T08:37:04;17.00;34.50
45868;DHT22;31582;45.490;7.860;2023-04-01T08:39:35;17.10;34.80
45868;DHT22;31582;45.490;7.860;2023-04-01T08:56:19;17.40;33.10
45868;DHT22;31582;45.490;7.860;2023-04-01T09:07:33;17.90;32.90
45868;DHT22;31582;45.490;7.860;2023-04-01T09:10:15;18.00;31.90
45868;DHT22;31582;45.490;7.860;2023-04-01T09:30:39;18.80;30.20
45868;DHT22;31582;45.490;7.860;2023-04-01T09:33:36;18.90;30.80
45868;DHT22;31582;45.490;7.860;2023-04-01T09:39:20;19.20;29.70
45868;DHT22;31582;45.490;7.860;2023-04-01T09:53:11;19.70;28.50
45868;DHT22;31582;45.490;7.860;2023-04-01T09:56:14;19.70;27.60
45868;DHT22;31582;45.490;7.860;2023-04-01T10:01:42;19.90;28.80
45868;DHT22;31582;45.490;7.860;2023-04-01T10:10:59;20.30;28.60
45868;DHT22;31582;45.490;7.860;2023-04-01T10:33:36;20.10;28.10
45868;DHT22;31582;45.490;7.860;2023-04-01T10:54:46;19.40;26.40
45868;DHT22;31582;45.490;7.860;2023-04-01T11:06:05;19.50;28.70
45868;DHT22;31582;45.490;7.860;2023-04-01T11:17:27;19.30;27.60
45868;DHT22;31582;45.490;7.860;2023-04-01T11:20:33;19.20;27.90
45868;DHT22;31582;45.490;7.860;2023-04-01T11:23:14;19.00;27.40
45868;DHT22;31582;45.490;7.860;2023-04-01T11:36:47;18.70;28.50
45868;DHT22;31582;45.490;7.860;2023-04-01T11:39:46;19.00;29.00
45868;DHT22;31582;45.490;7.860;2023-04-01T11:42:41;19.40;27.70
45868;DHT22;31582;45.490;7.860;2023-04-01T11:56:39;21.10;27.10
45868;DHT22;31582;45.490;7.860;2023-04-01T12:15:04;20.60;25.90
45868;DHT22;31582;45.490;7.860;2023-04-01T12:29:05;21.90;24.20
45868;DHT22;31582;45.490;7.860;2023-04-01T12:31:47;22.10;24.70
45868;DHT22;31582;45.490;7.860;2023-04-01T12:49:02;23.50;21.80
45868;DHT22;31582;45.490;7.860;2023-04-01T12:51:46;23.50;22.60
45868;DHT22;31582;45.490;7.860;2023-04-01T13:06:23;24.40;21.60
45868;DHT22;31582;45.490;7.860;2023-04-01T13:09:16;24.60;20.50
45868;DHT22;31582;45.490;7.860;2023-04-01T13:17:27;24.30;20.60
45868;DHT22;31582;45.490;7.860;2023-04-01T13:20:22;24.10;19.80
45868;DHT22;31582;45.490;7.860;2023-04-01T13:28:19;24.20;20.50
45868;DHT22;31582;45.490;7.860;2023-04-01T13:36:47;25.20;20.50
45868;DHT22;31582;45.490;7.860;2023-04-01T13:39:45;25.50;19.80
45868;DHT22;31582;45.490;7.860;2023-04-01T13:45:15;25.70;19.60
45868;DHT22;31582;45.490;7.860;2023-04-01T13:53:35;25.60;19.80
45868;DHT22;31582;45.490;7.860;2023-04-01T13:56:23;25.30;18.90
45868;DHT22;31582;45.490;7.860;2023-04-01T14:10:17;24.30;20.10
45868;DHT22;31582;45.490;7.860;2023-04-01T14:12:58;24.30;19.60
45868;DHT22;31582;45.490;7.860;2023-04-01T14:15:40;24.10;19.60
45868;DHT22;31582;45.490;7.860;2023-04-01T14:18:14;23.70;19.30
45868;DHT22;31582;45.490;7.860;2023-04-01T14:26:19;22.40;20.60
45868;DHT22;31582;45.490;7.860;2023-04-01T14:34:38;21.60;21.40
45868;DHT22;31582;45.490;7.860;2023-04-01T14:48:52;21.10;22.10
45868;DHT22;31582;45.490;7.860;2023-04-01T14:51:29;21.00;22.10
45868;DHT22;31582;45.490;7.860;2023-04-01T14:54:19;20.80;22.70
45868;DHT22;31582;45.490;7.860;2023-04-01T14:57:15;20.70;22.70
45868;DHT22;31582;45.490;7.860;2023-04-01T15:00:37;20.50;23.10
45868;DHT22;31582;45.490;7.860;2023-04-01T15:08:29;20.20;23.20
45868;DHT22;31582;45.490;7.860;2023-04-01T15:11:11;20.10;23.70
45868;DHT22;31582;45.490;7.860;2023-04-01T15:14:01;20.10;23.10
45868;DHT22;31582;45.490;7.860;2023-04-01T15:16:55;20.20;23.40
45868;DHT22;31582;45.490;7.860;2023-04-01T15:22:44;20.80;23.30
45868;DHT22;31582;45.490;7.860;2023-04-01T15:31:16;20.30;23.40
45868;DHT22;31582;45.490;7.860;2023-04-01T15:40:32;19.70;23.70
45868;DHT22;31582;45.490;7.860;2023-04-01T15:49:12;19.40;23.40
45868;DHT22;31582;45.490;7.860;2023-04-01T16:00:29;19.00;24.20
45868;DHT22;31582;45.490;7.860;2023-04-01T16:25:36;18.40;24.70
45868;DHT22;31582;45.490;7.860;2023-04-01T16:28:25;18.30;25.40
45868;DHT22;31582;45.490;7.860;2023-04-01T16:31:07;18.30;25.30
45868;DHT22;31582;45.490;7.860;2023-04-01T16:34:01;18.30;25.20
45868;DHT22;31582;45.490;7.860;2023-04-01T16:42:09;19.40;24.30
45868;DHT22;31582;45.490;7.860;2023-04-01T16:47:55;20.30;23.80
45868;DHT22;31582;45.490;7.860;2023-04-01T16:50:59;20.40;23.40
45868;DHT22;31582;45.490;7.860;2023-04-01T16:53:36;20.40;23.50
45868;DHT22;31582;45.490;7.860;2023-04-01T16:59:13;20.70;22.10
45868;DHT22;31582;45.490;7.860;2023-04-01T17:07:11;20.80;22.50
45868;DHT22;31582;45.490;7.860;2023-04-01T17:12:55;20.70;22.30
45868;DHT22;31582;45.490;7.860;2023-04-01T17:15:28;20.50;22.80
45868;DHT22;31582;45.490;7.860;2023-04-01T17:21:18;19.70;23.40
45868;DHT22;31582;45.490;7.860;2023-04-01T17:29:23;19.00;24.00
45868;DHT22;31582;45.490;7.860;2023-04-01T17:32:22;18.80;24.10
45868;DHT22;31582;45.490;7.860;2023-04-01T17:35:04;18.60;24.60
45868;DHT22;31582;45.490;7.860;2023-04-01T17:37:44;18.40;24.40
